sensor_id;sensor_type;location;lat;lon;timestamp;pressure;altitude;pressure_sealevel;temperature;humidity
11413;BME280;5762;43.256;26.960;2022-10-16T00:02:19;100442.12;;;10.41;100.00
11413;BME280;5762;43.256;26.960;2022-10-16T00:04:49;100447.27;;;10.40;100.00
11413;BME280;5762;43.256;26.960;2022-10-16T00:07:30;100451.33;;;10.40;100.00
11413;BME280;5762;43.256;26.960;2022-10-16T00:09:59;100452.14;;;10.41;100.00
11413;BME280;5762;43.256;26.960;2022-10-16T00:12:38;100451.10;;;10.39;100.00
11413;BME280;5762;43.256;26.960;2022-10-16T00:15:12;100445.11;;;10.40;100.00
11413;BME280;5762;43.256;26.960;2022-10-16T00:17:57;100453.22;;;10.43;100.00
11413;BME280;5762;43.256;26.960;2022-10-16T00:20:42;100449.94;;;10.48;100.00
11413;BME280;5762;43.256;26.960;2022-10-16T00:23:11;100451.30;;;10.48;100.00
11413;BME280;5762;43.256;26.960;2022-10-16T00:25:42;100451.60;;;10.41;100.00
11413;BME280;5762;43.256;26.960;2022-10-16T00:28:30;100458.14;;;10.38;100.00
11413;BME280;5762;43.256;26.960;2022-10-16T00:31:03;100459.80;;;10.29;100.00
11413;BME280;5762;43.256;26.960;2022-10-16T00:33:36;100450.84;;;10.36;100.00
11413;BME280;5762;43.256;26.960;2022-10-16T00:36:16;100452.80;;;10.23;100.00
11413;BME280;5762;43.256;26.960;2022-10-16T00:38:44;100457.94;;;10.22;100.00
11413;BME280;5762;43.256;26.960;2022-10-16T00:41:19;100459.30;;;10.22;100.00
11413;BME280;5762;43.256;26.960;2022-10-16T00:43:49;100460.34;;;10.28;100.00
11413;BME280;5762;43.256;26.960;2022-10-16T00:49:15;100464.41;;;10.26;100.00
11413;BME280;5762;43.256;26.960;2022-10-16T00:51:50;100455.25;;;10.19;100.00
11413;BME280;5762;43.256;26.960;2022-10-16T00:54:26;100469.86;;;10.11;100.00
11413;BME280;5762;43.256;26.960;2022-10-16T00:57:08;100465.25;;;10.14;100.00
11413;BME280;5762;43.256;26.960;2022-10-16T00:59:41;100469.10;;;10.02;100.00
11413;BME280;5762;43.256;26.960;2022-10-16T01:02:15;100469.92;;;9.98;100.00
11413;BME280;5762;43.256;26.960;2022-10-16T01:08:05;100462.88;;;10.04;100.00
11413;BME280;5762;43.256;26.960;2022-10-16T01:10:41;100466.39;;;10.02;100.00
11413;BME280;5762;43.256;26.960;2022-10-16T01:13:21;100467.48;;;10.01;100.00
11413;BME280;5762;43.256;26.960;2022-10-16T01:18:23;100469.94;;;9.93;100.00
11413;BME280;5762;43.256;26.960;2022-10-16T01:33:46;100481.06;;;9.79;100.00
11413;BME280;5762;43.256;26.960;2022-10-16T01:39:02;100487.06;;;9.53;100.00
11413;BME280;5762;43.256;26.960;2022-10-16T01:41:38;100493.02;;;9.52;100.00
11413;BME280;5762;43.256;26.960;2022-10-16T01:44:24;100488.42;;;9.53;100.00
11413;BME280;5762;43.256;26.960;2022-10-16T01:46:53;100489.50;;;9.47;100.00
11413;BME280;5762;43.256;26.960;2022-10-16T01:49:25;100495.18;;;9.48;100.00
11413;BME280;5762;43.256;26.960;2022-10-16T01:51:59;100496.53;;;9.53;100.00
11413;BME280;5762;43.256;26.960;2022-10-16T02:02:45;100492.20;;;9.54;100.00
11413;BME280;5762;43.256;26.960;2022-10-16T02:05:26;100493.55;;;9.57;100.00
11413;BME280;5762;43.256;26.960;2022-10-16T02:10:51;100493.56;;;9.44;100.00
11413;BME280;5762;43.256;26.960;2022-10-16T02:16:11;100490.05;;;9.46;100.00
11413;BME280;5762;43.256;26.960;2022-10-16T02:21:28;100493.02;;;9.47;100.00
11413;BME280;5762;43.256;26.960;2022-10-16T02:32:24;100510.98;;;8.37;100.00
11413;BME280;5762;43.256;26.960;2022-10-16T02:34:54;100507.19;;;8.33;100.00
11413;BME280;5762;43.256;26.960;2022-10-16T02:45:45;100528.38;;;7.65;100.00
11413;BME280;5762;43.256;26.960;2022-10-16T02:48:17;100538.58;;;7.55;100.00
11413;BME280;5762;43.256;26.960;2022-10-16T02:53:51;100548.63;;;7.33;100.00
11413;BME280;5762;43.256;26.960;2022-10-16T02:56:23;100545.41;;;7.04;100.00
11413;BME280;5762;43.256;26.960;2022-10-16T03:04:23;100573.76;;;6.85;100.00
11413;BME280;5762;43.256;26.960;2022-10-16T03:09:28;100587.15;;;6.80;100.00
11413;BME280;5762;43.256;26.960;2022-10-16T03:12:00;100586.30;;;6.77;100.00
11413;BME280;5762;43.256;26.960;2022-10-16T03:14:29;100598.91;;;6.73;100.00
11413;BME280;5762;43.256;26.960;2022-10-16T03:17:00;100594.81;;;6.68;100.00
11413;BME280;5762;43.256;26.960;2022-10-16T03:19:29;100602.50;;;6.57;100.00
11413;BME280;5762;43.256;26.960;2022-10-16T03:22:00;100600.06;;;6.56;100.00
11413;BME280;5762;43.256;26.960;2022-10-16T03:24:35;100604.84;;;6.51;100.00
11413;BME280;5762;43.256;26.960;2022-10-16T03:27:23;100606.91;;;6.44;100.00
11413;BME280;5762;43.256;26.960;2022-10-16T03:29:56;100607.86;;;6.35;100.00
11413;BME280;5762;43.256;26.960;2022-10-16T03:38:27;100618.46;;;6.23;100.00
11413;BME280;5762;43.256;26.960;2022-10-16T03:43:57;100625.31;;;6.14;100.00
11413;BME280;5762;43.256;26.960;2022-10-16T03:46:26;100625.16;;;6.03;100.00
11413;BME280;5762;43.256;26.960;2022-10-16T03:48:56;100624.14;;;6.07;100.00
11413;BME280;5762;43.256;26.960;2022-10-16T03:54:42;100621.13;;;6.03;100.00
11413;BME280;5762;43.256;26.960;2022-10-16T04:00:00;100627.80;;;6.01;100.00
11413;BME280;5762;43.256;26.960;2022-10-16T04:02:45;100630.37;;;5.93;100.00
11413;BME280;5762;43.256;26.960;2022-10-16T04:05:25;100636.76;;;5.90;100.00
11413;BME280;5762;43.256;26.960;2022-10-16T04:16:14;100634.38;;;5.60;100.00
11413;BME280;5762;43.256;26.960;2022-10-16T04:19:00;100636.97;;;5.55;100.00
11413;BME280;5762;43.256;26.960;2022-10-16T04:45:38;100666.66;;;5.17;100.00
11413;BME280;5762;43.256;26.960;2022-10-16T04:53:40;100672.25;;;5.30;100.00
11413;BME280;5762;43.256;26.960;2022-10-16T04:56:26;100680.53;;;5.28;100.00
11413;BME280;5762;43.256;26.960;2022-10-16T04:58:57;100683.61;;;5.34;100.00
11413;BME280;5762;43.256;26.960;2022-10-16T05:04:32;100681.45;;;5.48;100.00
11413;BME280;5762;43.256;26.960;2022-10-16T05:07:19;100683.56;;;5.46;100.00
11413;BME280;5762;43.256;26.960;2022-10-16T05:12:53;100691.48;;;5.69;100.00
11413;BME280;5762;43.256;26.960;2022-10-16T05:15:26;100697.03;;;5.80;100.00
11413;BME280;5762;43.256;26.960;2022-10-16T05:23:24;100696.12;;;6.05;100.00
11413;BME280;5762;43.256;26.960;2022-10-16T05:25:56;100700.85;;;6.15;100.00
11413;BME280;5762;43.256;26.960;2022-10-16T05:28:33;100707.13;;;6.20;100.00
11413;BME280;5762;43.256;26.960;2022-10-16T05:31:05;100711.61;;;6.34;100.00
11413;BME280;5762;43.256;26.960;2022-10-16T05:33:36;100713.88;;;6.61;100.00
11413;BME280;5762;43.256;26.960;2022-10-16T05:36:08;100718.06;;;6.71;100.00
11413;BME280;5762;43.256;26.960;2022-10-16T05:38:39;100725.88;;;6.73;100.00
11413;BME280;5762;43.256;26.960;2022-10-16T05:46:57;100721.99;;;7.27;100.00
11413;BME280;5762;43.256;26.960;2022-10-16T05:52:29;100713.67;;;7.55;100.00
11413;BME280;5762;43.256;26.960;2022-10-16T05:55:08;100712.22;;;7.74;100.00
11413;BME280;5762;43.256;26.960;2022-10-16T06:19:29;100687.23;;;9.18;100.00
11413;BME280;5762;43.256;26.960;2022-10-16T06:22:11;100693.75;;;9.27;100.00
11413;BME280;5762;43.256;26.960;2022-10-16T06:24:47;100694.02;;;9.38;100.00
11413;BME280;5762;43.256;26.960;2022-10-16T06:27:21;100691.63;;;9.50;100.00
11413;BME280;5762;43.256;26.960;2022-10-16T06:38:52;100698.17;;;10.04;100.00
11413;BME280;5762;43.256;26.960;2022-10-16T06:41:45;100699.49;;;10.15;100.00
11413;BME280;5762;43.256;26.960;2022-10-16T06:44:30;100696.55;;;10.24;100.00
11413;BME280;5762;43.256;26.960;2022-10-16T06:47:14;100703.03;;;10.33;100.00
11413;BME280;5762;43.256;26.960;2022-10-16T06:50:01;100705.98;;;10.41;100.00
11413;BME280;5762;43.256;26.960;2022-10-16T06:52:32;100717.61;;;10.50;100.00
11413;BME280;5762;43.256;26.960;2022-10-16T06:55:03;100716.79;;;10.54;100.00
11413;BME280;5762;43.256;26.960;2022-10-16T06:57:49;100713.27;;;10.59;100.00
11413;BME280;5762;43.256;26.960;2022-10-16T07:00:20;100720.28;;;10.70;100.00
11413;BME280;5762;43.256;26.960;2022-10-16T07:05:53;100717.52;;;10.85;100.00
11413;BME280;5762;43.256;26.960;2022-10-16T07:08:23;100718.30;;;10.93;100.00
11413;BME280;5762;43.256;26.960;2022-10-16T07:13:33;100714.22;;;10.98;100.00
11413;BME280;5762;43.256;26.960;2022-10-16T07:16:04;100705.82;;;11.00;100.00
11413;BME280;5762;43.256;26.960;2022-10-16T07:18:32;100713.70;;;10.94;100.00
11413;BME280;5762;43.256;26.960;2022-10-16T07:21:19;100707.11;;;11.10;100.00
11413;BME280;5762;43.256;26.960;2022-10-16T07:23:50;100705.73;;;11.18;100.00
11413;BME280;5762;43.256;26.960;2022-10-16T07:31:39;100705.63;;;11.40;100.00
11413;BME280;5762;43.256;26.960;2022-10-16T07:34:09;100707.47;;;11.45;100.00
11413;BME280;5762;43.256;26.960;2022-10-16T07:36:39;100701.98;;;11.58;100.00
11413;BME280;5762;43.256;26.960;2022-10-16T07:39:09;100701.63;;;11.72;100.00
11413;BME280;5762;43.256;26.960;2022-10-16T07:41:38;100695.33;;;11.82;100.00
11413;BME280;5762;43.256;26.960;2022-10-16T07:44:08;100692.05;;;11.85;100.00
11413;BME280;5762;43.256;26.960;2022-10-16T07:46:38;100692.52;;;11.94;100.00
11413;BME280;5762;43.256;26.960;2022-10-16T07:49:08;100690.63;;;12.24;100.00
11413;BME280;5762;43.256;26.960;2022-10-16T07:51:38;100701.03;;;12.69;100.00
11413;BME280;5762;43.256;26.960;2022-10-16T07:54:08;100697.43;;;12.98;100.00
11413;BME280;5762;43.256;26.960;2022-10-16T07:56:38;100691.75;;;13.18;100.00
11413;BME280;5762;43.256;26.960;2022-10-16T07:59:07;100690.35;;;13.42;100.00
11413;BME280;5762;43.256;26.960;2022-10-16T08:01:36;100690.83;;;13.47;100.00
11413;BME280;5762;43.256;26.960;2022-10-16T08:04:05;100692.91;;;13.52;100.00
11413;BME280;5762;43.256;26.960;2022-10-16T08:06:35;100692.72;;;13.65;100.00
11413;BME280;5762;43.256;26.960;2022-10-16T08:09:05;100701.33;;;13.72;100.00
11413;BME280;5762;43.256;26.960;2022-10-16T08:16:33;100700.42;;;14.12;100.00
11413;BME280;5762;43.256;26.960;2022-10-16T08:19:02;100698.86;;;14.22;100.00
11413;BME280;5762;43.256;26.960;2022-10-16T08:21:32;100704.14;;;14.32;100.00
11413;BME280;5762;43.256;26.960;2022-10-16T08:24:01;100699.37;;;14.40;100.00
11413;BME280;5762;43.256;26.960;2022-10-16T08:26:30;100690.38;;;14.42;100.00
11413;BME280;5762;43.256;26.960;2022-10-16T08:28:59;100685.91;;;14.49;100.00
11413;BME280;5762;43.256;26.960;2022-10-16T08:31:28;100683.01;;;14.56;100.00
11413;BME280;5762;43.256;26.960;2022-10-16T08:33:58;100686.75;;;14.60;100.00
11413;BME280;5762;43.256;26.960;2022-10-16T08:36:27;100679.91;;;14.77;100.00
11413;BME280;5762;43.256;26.960;2022-10-16T08:38:56;100681.09;;;14.98;100.00
11413;BME280;5762;43.256;26.960;2022-10-16T08:48:54;100669.41;;;15.33;100.00
11413;BME280;5762;43.256;26.960;2022-10-16T08:51:24;100673.48;;;15.47;100.00
11413;BME280;5762;43.256;26.960;2022-10-16T08:53:55;100679.35;;;15.40;100.00
11413;BME280;5762;43.256;26.960;2022-10-16T08:56:23;100680.60;;;15.59;100.00
11413;BME280;5762;43.256;26.960;2022-10-16T08:58:54;100695.52;;;15.62;100.00
11413;BME280;5762;43.256;26.960;2022-10-16T09:01:24;100695.16;;;15.66;100.00
11413;BME280;5762;43.256;26.960;2022-10-16T09:21:22;100696.09;;;16.28;99.41
11413;BME280;5762;43.256;26.960;2022-10-16T09:23:51;100691.94;;;15.97;95.04
11413;BME280;5762;43.256;26.960;2022-10-16T09:26:20;100695.55;;;16.06;98.89
11413;BME280;5762;43.256;26.960;2022-10-16T09:28:51;100685.36;;;15.98;100.00
11413;BME280;5762;43.256;26.960;2022-10-16T09:31:20;100690.33;;;16.19;100.00
11413;BME280;5762;43.256;26.960;2022-10-16T09:33:53;100679.89;;;16.21;98.57
11413;BME280;5762;43.256;26.960;2022-10-16T09:36:22;100681.07;;;16.28;98.58
11413;BME280;5762;43.256;26.960;2022-10-16T09:39:05;100673.57;;;16.42;97.03
11413;BME280;5762;43.256;26.960;2022-10-16T09:41:33;100680.10;;;16.33;94.70
11413;BME280;5762;43.256;26.960;2022-10-16T09:44:01;100672.78;;;16.31;93.44
11413;BME280;5762;43.256;26.960;2022-10-16T09:46:32;100664.59;;;16.31;93.87
11413;BME280;5762;43.256;26.960;2022-10-16T09:49:01;100681.38;;;16.27;93.47
11413;BME280;5762;43.256;26.960;2022-10-16T09:56:31;100666.36;;;16.27;90.93
11413;BME280;5762;43.256;26.960;2022-10-16T09:59:01;100666.86;;;16.18;87.17
11413;BME280;5762;43.256;26.960;2022-10-16T10:01:32;100663.13;;;16.25;85.99
11413;BME280;5762;43.256;26.960;2022-10-16T10:04:00;100672.22;;;16.31;86.57
11413;BME280;5762;43.256;26.960;2022-10-16T10:06:31;100661.02;;;16.22;85.33
11413;BME280;5762;43.256;26.960;2022-10-16T10:16:30;100670.72;;;16.36;84.84
11413;BME280;5762;43.256;26.960;2022-10-16T10:19:00;100680.41;;;16.31;88.03
11413;BME280;5762;43.256;26.960;2022-10-16T10:21:32;100669.96;;;16.25;88.08
11413;BME280;5762;43.256;26.960;2022-10-16T10:23:59;100664.55;;;16.53;87.46
11413;BME280;5762;43.256;26.960;2022-10-16T10:26:28;100659.75;;;16.59;86.48
11413;BME280;5762;43.256;26.960;2022-10-16T10:31:29;100678.78;;;16.72;82.92
11413;BME280;5762;43.256;26.960;2022-10-16T10:46:29;100660.97;;;17.21;79.98
11413;BME280;5762;43.256;26.960;2022-10-16T10:53:59;100655.88;;;17.08;77.73
11413;BME280;5762;43.256;26.960;2022-10-16T11:01:26;100644.94;;;17.08;72.76
11413;BME280;5762;43.256;26.960;2022-10-16T11:08:55;100638.77;;;17.22;71.37
11413;BME280;5762;43.256;26.960;2022-10-16T11:11:25;100649.80;;;17.28;69.59
11413;BME280;5762;43.256;26.960;2022-10-16T11:16:26;100638.05;;;17.28;70.82
11413;BME280;5762;43.256;26.960;2022-10-16T11:18:54;100633.39;;;17.28;72.12
11413;BME280;5762;43.256;26.960;2022-10-16T11:21:21;100638.84;;;17.46;72.94
11413;BME280;5762;43.256;26.960;2022-10-16T11:23:53;100637.96;;;17.48;71.82
11413;BME280;5762;43.256;26.960;2022-10-16T11:26:23;100635.06;;;17.70;70.83
11413;BME280;5762;43.256;26.960;2022-10-16T11:28:53;100633.13;;;17.45;69.08
11413;BME280;5762;43.256;26.960;2022-10-16T11:31:24;100639.09;;;17.55;68.29
11413;BME280;5762;43.256;26.960;2022-10-16T11:36:23;100638.03;;;17.36;66.52
11413;BME280;5762;43.256;26.960;2022-10-16T11:46:19;100634.75;;;17.54;68.20
11413;BME280;5762;43.256;26.960;2022-10-16T11:48:49;100643.48;;;17.65;67.96
11413;BME280;5762;43.256;26.960;2022-10-16T11:51:21;100645.53;;;17.77;67.98
11413;BME280;5762;43.256;26.960;2022-10-16T11:56:18;100647.79;;;17.74;67.01
11413;BME280;5762;43.256;26.960;2022-10-16T12:01:19;100650.84;;;17.82;66.40
11413;BME280;5762;43.256;26.960;2022-10-16T12:03:48;100645.28;;;17.93;65.98
11413;BME280;5762;43.256;26.960;2022-10-16T12:08:47;100659.88;;;17.73;65.67
11413;BME280;5762;43.256;26.960;2022-10-16T12:13:45;100652.94;;;17.59;65.04
11413;BME280;5762;43.256;26.960;2022-10-16T12:18:44;100651.56;;;17.93;65.44
11413;BME280;5762;43.256;26.960;2022-10-16T12:21:14;100656.59;;;18.06;65.25
11413;BME280;5762;43.256;26.960;2022-10-16T12:26:13;100662.84;;;18.24;65.37
11413;BME280;5762;43.256;26.960;2022-10-16T12:28:43;100673.92;;;18.04;64.28
11413;BME280;5762;43.256;26.960;2022-10-16T12:31:12;100661.83;;;18.05;64.26
11413;BME280;5762;43.256;26.960;2022-10-16T12:33:42;100654.58;;;18.09;64.30
11413;BME280;5762;43.256;26.960;2022-10-16T12:36:13;100663.26;;;18.20;64.45
11413;BME280;5762;43.256;26.960;2022-10-16T12:41:11;100658.97;;;18.01;63.22
11413;BME280;5762;43.256;26.960;2022-10-16T12:43:44;100660.98;;;17.98;62.83
11413;BME280;5762;43.256;26.960;2022-10-16T12:48:39;100649.08;;;18.18;61.83
11413;BME280;5762;43.256;26.960;2022-10-16T12:51:11;100657.54;;;18.19;61.75
11413;BME280;5762;43.256;26.960;2022-10-16T12:53:39;100663.58;;;17.86;61.70
11413;BME280;5762;43.256;26.960;2022-10-16T13:01:10;100660.75;;;17.97;62.44
11413;BME280;5762;43.256;26.960;2022-10-16T13:03:40;100657.76;;;18.28;62.67
11413;BME280;5762;43.256;26.960;2022-10-16T13:28:31;100671.72;;;18.44;58.92
11413;BME280;5762;43.256;26.960;2022-10-16T13:31:01;100671.78;;;18.73;58.31
11413;BME280;5762;43.256;26.960;2022-10-16T13:38:31;100668.80;;;18.72;57.72
11413;BME280;5762;43.256;26.960;2022-10-16T13:41:00;100679.05;;;18.46;56.90
11413;BME280;5762;43.256;26.960;2022-10-16T13:48:29;100672.11;;;18.25;57.57
11413;BME280;5762;43.256;26.960;2022-10-16T13:51:01;100677.81;;;18.35;57.36
11413;BME280;5762;43.256;26.960;2022-10-16T13:53:30;100679.36;;;18.30;56.96
11413;BME280;5762;43.256;26.960;2022-10-16T13:56:03;100679.52;;;18.01;57.22
11413;BME280;5762;43.256;26.960;2022-10-16T13:58:32;100682.83;;;17.84;57.74
11413;BME280;5762;43.256;26.960;2022-10-16T14:01:04;100687.53;;;18.06;57.47
11413;BME280;5762;43.256;26.960;2022-10-16T14:03:32;100680.16;;;17.90;57.56
11413;BME280;5762;43.256;26.960;2022-10-16T14:06:02;100686.61;;;17.85;57.08
11413;BME280;5762;43.256;26.960;2022-10-16T14:08:31;100684.52;;;17.91;57.39
11413;BME280;5762;43.256;26.960;2022-10-16T14:11:01;100686.28;;;17.95;57.44
11413;BME280;5762;43.256;26.960;2022-10-16T14:16:00;100682.66;;;17.89;57.51
11413;BME280;5762;43.256;26.960;2022-10-16T14:18:29;100690.47;;;17.75;57.73
11413;BME280;5762;43.256;26.960;2022-10-16T14:23:29;100697.10;;;17.66;58.23
11413;BME280;5762;43.256;26.960;2022-10-16T14:28:29;100705.27;;;17.49;58.65
11413;BME280;5762;43.256;26.960;2022-10-16T14:30:59;100703.41;;;17.29;58.94
11413;BME280;5762;43.256;26.960;2022-10-16T14:38:29;100710.31;;;17.35;59.27
11413;BME280;5762;43.256;26.960;2022-10-16T14:40:59;100707.43;;;17.32;58.95
11413;BME280;5762;43.256;26.960;2022-10-16T14:48:28;100709.28;;;17.42;59.08
11413;BME280;5762;43.256;26.960;2022-10-16T14:50:57;100705.41;;;17.43;58.80
11413;BME280;5762;43.256;26.960;2022-10-16T14:53:26;100717.33;;;17.30;58.95
11413;BME280;5762;43.256;26.960;2022-10-16T14:58:25;100717.33;;;17.30;58.59
11413;BME280;5762;43.256;26.960;2022-10-16T15:00:55;100718.45;;;17.29;58.80
11413;BME280;5762;43.256;26.960;2022-10-16T15:03:24;100721.89;;;17.24;59.21
11413;BME280;5762;43.256;26.960;2022-10-16T15:05:53;100707.67;;;16.96;60.05
11413;BME280;5762;43.256;26.960;2022-10-16T15:08:22;100709.07;;;16.85;60.44
11413;BME280;5762;43.256;26.960;2022-10-16T15:10:51;100707.35;;;16.78;60.92
11413;BME280;5762;43.256;26.960;2022-10-16T15:13:20;100709.57;;;16.56;61.67
11413;BME280;5762;43.256;26.960;2022-10-16T15:15:49;100709.84;;;16.34;62.49
11413;BME280;5762;43.256;26.960;2022-10-16T15:18:18;100709.04;;;16.34;63.00
11413;BME280;5762;43.256;26.960;2022-10-16T15:20:49;100708.83;;;16.22;63.97
11413;BME280;5762;43.256;26.960;2022-10-16T15:23:18;100716.58;;;16.06;64.91
11413;BME280;5762;43.256;26.960;2022-10-16T15:28:17;100719.45;;;15.90;66.71
11413;BME280;5762;43.256;26.960;2022-10-16T15:30:48;100719.86;;;15.72;67.57
11413;BME280;5762;43.256;26.960;2022-10-16T15:35:47;100724.09;;;15.53;69.64
11413;BME280;5762;43.256;26.960;2022-10-16T15:38:17;100734.47;;;15.40;70.70
11413;BME280;5762;43.256;26.960;2022-10-16T15:40:46;100730.43;;;15.37;71.71
11413;BME280;5762;43.256;26.960;2022-10-16T15:43:16;100733.30;;;15.19;73.33
11413;BME280;5762;43.256;26.960;2022-10-16T15:48:15;100741.13;;;15.09;75.52
11413;BME280;5762;43.256;26.960;2022-10-16T15:50:44;100742.37;;;15.00;76.83
11413;BME280;5762;43.256;26.960;2022-10-16T15:53:14;100744.19;;;14.91;77.77
11413;BME280;5762;43.256;26.960;2022-10-16T15:55:43;100756.93;;;14.82;78.93
11413;BME280;5762;43.256;26.960;2022-10-16T16:05:41;100768.17;;;14.29;84.75
11413;BME280;5762;43.256;26.960;2022-10-16T16:08:10;100779.25;;;14.19;86.32
11413;BME280;5762;43.256;26.960;2022-10-16T16:10:39;100779.77;;;14.02;88.12
11413;BME280;5762;43.256;26.960;2022-10-16T16:13:08;100786.50;;;13.89;89.60
11413;BME280;5762;43.256;26.960;2022-10-16T16:15:38;100794.80;;;13.81;90.46
11413;BME280;5762;43.256;26.960;2022-10-16T16:18:07;100800.56;;;13.77;91.36
11413;BME280;5762;43.256;26.960;2022-10-16T16:20:37;100799.92;;;13.64;92.37
11413;BME280;5762;43.256;26.960;2022-10-16T16:23:06;100799.14;;;13.61;93.65
11413;BME280;5762;43.256;26.960;2022-10-16T16:25:36;100806.39;;;13.49;94.69
11413;BME280;5762;43.256;26.960;2022-10-16T16:30:39;100813.97;;;13.28;97.20
11413;BME280;5762;43.256;26.960;2022-10-16T16:33:08;100807.75;;;13.25;98.37
11413;BME280;5762;43.256;26.960;2022-10-16T16:35:38;100814.55;;;13.25;98.87
11413;BME280;5762;43.256;26.960;2022-10-16T16:38:12;100818.09;;;13.23;99.40
11413;BME280;5762;43.256;26.960;2022-10-16T16:40:51;100816.48;;;13.22;100.00
11413;BME280;5762;43.256;26.960;2022-10-16T16:43:22;100813.58;;;13.14;100.00
11413;BME280;5762;43.256;26.960;2022-10-16T16:46:09;100815.77;;;13.12;100.00
11413;BME280;5762;43.256;26.960;2022-10-16T16:48:43;100815.33;;;13.02;100.00
11413;BME280;5762;43.256;26.960;2022-10-16T16:56:43;100822.43;;;12.98;100.00
11413;BME280;5762;43.256;26.960;2022-10-16T16:59:18;100828.17;;;12.94;100.00
11413;BME280;5762;43.256;26.960;2022-10-16T17:01:48;100836.92;;;12.88;100.00
11413;BME280;5762;43.256;26.960;2022-10-16T17:04:19;100830.94;;;12.89;100.00
11413;BME280;5762;43.256;26.960;2022-10-16T17:06:49;100835.87;;;12.84;100.00
11413;BME280;5762;43.256;26.960;2022-10-16T17:09:18;100840.02;;;12.79;100.00
11413;BME280;5762;43.256;26.960;2022-10-16T17:11:50;100841.09;;;12.81;100.00
11413;BME280;5762;43.256;26.960;2022-10-16T17:14:20;100844.16;;;12.71;100.00
11413;BME280;5762;43.256;26.960;2022-10-16T17:16:49;100841.48;;;12.66;100.00
11413;BME280;5762;43.256;26.960;2022-10-16T17:19:19;100842.01;;;12.68;100.00
11413;BME280;5762;43.256;26.960;2022-10-16T17:21:49;100838.80;;;12.61;100.00
11413;BME280;5762;43.256;26.960;2022-10-16T17:24:19;100839.11;;;12.57;100.00
11413;BME280;5762;43.256;26.960;2022-10-16T17:29:27;100830.73;;;12.51;100.00
11413;BME280;5762;43.256;26.960;2022-10-16T17:31:57;100841.40;;;12.45;100.00
11413;BME280;5762;43.256;26.960;2022-10-16T17:34:32;100842.56;;;12.34;100.00
11413;BME280;5762;43.256;26.960;2022-10-16T17:37:01;100848.02;;;12.29;100.00
11413;BME280;5762;43.256;26.960;2022-10-16T17:39:40;100847.27;;;12.18;100.00
11413;BME280;5762;43.256;26.960;2022-10-16T17:42:15;100848.36;;;12.17;100.00
11413;BME280;5762;43.256;26.960;2022-10-16T17:44:49;100851.13;;;12.12;100.00
11413;BME280;5762;43.256;26.960;2022-10-16T17:47:19;100847.09;;;12.07;100.00
11413;BME280;5762;43.256;26.960;2022-10-16T17:49:48;100849.56;;;12.01;100.00
11413;BME280;5762;43.256;26.960;2022-10-16T17:52:21;100852.30;;;11.96;100.00
11413;BME280;5762;43.256;26.960;2022-10-16T17:54:53;100851.28;;;11.84;100.00
11413;BME280;5762;43.256;26.960;2022-10-16T17:57:32;100859.14;;;11.83;100.00
11413;BME280;5762;43.256;26.960;2022-10-16T18:00:03;100855.12;;;11.73;100.00
11413;BME280;5762;43.256;26.960;2022-10-16T18:02:36;100851.60;;;11.70;100.00
11413;BME280;5762;43.256;26.960;2022-10-16T18:05:08;100856.49;;;11.68;100.00
11413;BME280;5762;43.256;26.960;2022-10-16T18:10:08;100855.44;;;11.59;100.00
11413;BME280;5762;43.256;26.960;2022-10-16T18:12:39;100854.09;;;11.54;100.00
11413;BME280;5762;43.256;26.960;2022-10-16T18:17:52;100859.05;;;11.39;100.00
11413;BME280;5762;43.256;26.960;2022-10-16T18:20:29;100865.28;;;11.39;100.00
11413;BME280;5762;43.256;26.960;2022-10-16T18:23:15;100862.59;;;11.29;100.00
11413;BME280;5762;43.256;26.960;2022-10-16T18:25:57;100868.02;;;11.24;100.00
11413;BME280;5762;43.256;26.960;2022-10-16T18:28:43;100872.09;;;11.24;100.00
11413;BME280;5762;43.256;26.960;2022-10-16T18:33:54;100877.25;;;11.18;100.00
11413;BME280;5762;43.256;26.960;2022-10-16T18:36:26;100884.56;;;11.13;100.00
11413;BME280;5762;43.256;26.960;2022-10-16T18:39:29;100888.40;;;11.06;100.00
11413;BME280;5762;43.256;26.960;2022-10-16T18:44:56;100894.36;;;10.98;100.00
11413;BME280;5762;43.256;26.960;2022-10-16T18:47:42;100897.87;;;10.99;100.00
11413;BME280;5762;43.256;26.960;2022-10-16T18:55:35;100910.07;;;10.99;100.00
11413;BME280;5762;43.256;26.960;2022-10-16T19:03:28;100926.33;;;10.99;100.00
11413;BME280;5762;43.256;26.960;2022-10-16T19:06:08;100928.77;;;11.05;100.00
11413;BME280;5762;43.256;26.960;2022-10-16T19:11:25;100951.52;;;11.02;100.00
11413;BME280;5762;43.256;26.960;2022-10-16T19:16:39;100954.15;;;10.44;100.00
11413;BME280;5762;43.256;26.960;2022-10-16T19:19:14;100955.77;;;10.42;100.00
11413;BME280;5762;43.256;26.960;2022-10-16T19:21:42;100956.06;;;10.38;100.00
11413;BME280;5762;43.256;26.960;2022-10-16T19:24:28;100964.95;;;10.28;100.00
11413;BME280;5762;43.256;26.960;2022-10-16T19:27:15;100959.80;;;10.24;100.00
11413;BME280;5762;43.256;26.960;2022-10-16T19:30:00;100966.83;;;10.23;100.00
11413;BME280;5762;43.256;26.960;2022-10-16T19:32:47;100969.75;;;10.19;100.00
11413;BME280;5762;43.256;26.960;2022-10-16T19:38:05;100973.86;;;10.21;100.00
11413;BME280;5762;43.256;26.960;2022-10-16T19:40:40;100977.88;;;10.19;100.00
11413;BME280;5762;43.256;26.960;2022-10-16T19:43:28;100984.08;;;10.17;100.00
11413;BME280;5762;43.256;26.960;2022-10-16T19:48:58;100987.05;;;10.13;100.00
11413;BME280;5762;43.256;26.960;2022-10-16T19:51:30;100983.73;;;9.95;100.00
11413;BME280;5762;43.256;26.960;2022-10-16T19:54:06;100978.58;;;9.91;100.00
11413;BME280;5762;43.256;26.960;2022-10-16T19:56:40;100991.02;;;9.92;100.00